sensor_id;sensor_type;location;lat;lon;timestamp;pressure;altitude;pressure_sealevel;temperature;humidity
28648;BME280;17137;51.494;-0.262;2023-06-14T00:00:22;49888.34;;;-145.72;24.49
28648;BME280;17137;51.494;-0.262;2023-06-14T00:00:52;49889.21;;;-145.72;24.52
28648;BME280;17137;51.494;-0.262;2023-06-14T00:01:22;49895.49;;;-145.72;24.52
28648;BME280;17137;51.494;-0.262;2023-06-14T00:01:53;49907.94;;;-145.72;24.58
28648;BME280;17137;51.494;-0.262;2023-06-14T00:02:23;49886.12;;;-145.72;24.57
28648;BME280;17137;51.494;-0.262;2023-06-14T00:02:53;49903.01;;;-145.72;24.57
28648;BME280;17137;51.494;-0.262;2023-06-14T00:03:24;49897.83;;;-145.72;24.60
28648;BME280;17137;51.494;-0.262;2023-06-14T00:03:54;49895.12;;;-145.72;24.60
28648;BME280;17137;51.494;-0.262;2023-06-14T00:04:24;49905.11;;;-145.72;24.80
28648;BME280;17137;51.494;-0.262;2023-06-14T00:04:55;49907.69;;;-145.72;24.93
28648;BME280;17137;51.494;-0.262;2023-06-14T00:05:25;49914.84;;;-145.72;24.97
28648;BME280;17137;51.494;-0.262;2023-06-14T00:05:55;49916.82;;;-145.72;25.05
28648;BME280;17137;51.494;-0.262;2023-06-14T00:06:25;49912.50;;;-145.72;25.06
28648;BME280;17137;51.494;-0.262;2023-06-14T00:06:56;49919.65;;;-145.72;25.17
28648;BME280;17137;51.494;-0.262;2023-06-14T00:07:34;49907.20;;;-145.72;25.11
28648;BME280;17137;51.494;-0.262;2023-06-14T00:08:05;49905.35;;;-145.72;25.19
28648;BME280;17137;51.494;-0.262;2023-06-14T00:08:35;49913.49;;;-145.72;25.28
28648;BME280;17137;51.494;-0.262;2023-06-14T00:09:05;49918.66;;;-145.72;25.39
28648;BME280;17137;51.494;-0.262;2023-06-14T00:09:36;49908.93;;;-145.72;25.42
28648;BME280;17137;51.494;-0.262;2023-06-14T00:10:07;49908.56;;;-145.72;25.44
28648;BME280;17137;51.494;-0.262;2023-06-14T00:10:38;49906.46;;;-145.72;25.53
28648;BME280;17137;51.494;-0.262;2023-06-14T00:11:09;49912.87;;;-145.72;25.53
28648;BME280;17137;51.494;-0.262;2023-06-14T00:11:39;49913.73;;;-145.72;25.65
28648;BME280;17137;51.494;-0.262;2023-06-14T00:12:09;49915.95;;;-145.72;25.98
28648;BME280;17137;51.494;-0.262;2023-06-14T00:12:40;49904.49;;;-145.72;26.05
28648;BME280;17137;51.494;-0.262;2023-06-14T00:13:10;49902.89;;;-145.72;26.07
28648;BME280;17137;51.494;-0.262;2023-06-14T00:13:41;49908.31;;;-145.72;26.16
28648;BME280;17137;51.494;-0.262;2023-06-14T00:14:11;49905.72;;;-145.72;26.25
28648;BME280;17137;51.494;-0.262;2023-06-14T00:14:41;49903.01;;;-145.72;26.22
28648;BME280;17137;51.494;-0.262;2023-06-14T00:15:12;49907.94;;;-145.72;26.27
28648;BME280;17137;51.494;-0.262;2023-06-14T00:15:42;49915.09;;;-145.72;26.37
28648;BME280;17137;51.494;-0.262;2023-06-14T00:16:13;49914.72;;;-145.72;26.50
28648;BME280;17137;51.494;-0.262;2023-06-14T00:16:43;49906.34;;;-145.72;26.56
28648;BME280;17137;51.494;-0.262;2023-06-14T00:17:14;49906.22;;;-145.72;26.53
28648;BME280;17137;51.494;-0.262;2023-06-14T00:17:44;49902.64;;;-145.72;26.55
28648;BME280;17137;51.494;-0.262;2023-06-14T00:18:14;49900.05;;;-145.72;26.63
28648;BME280;17137;51.494;-0.262;2023-06-14T00:18:44;49901.65;;;-145.72;26.68
28648;BME280;17137;51.494;-0.262;2023-06-14T00:19:15;49910.41;;;-145.72;26.77
28648;BME280;17137;51.494;-0.262;2023-06-14T00:19:45;49907.82;;;-145.72;26.78
28648;BME280;17137;51.494;-0.262;2023-06-14T00:20:15;49894.38;;;-145.72;27.00
28648;BME280;17137;51.494;-0.262;2023-06-14T00:20:46;49920.51;;;-145.72;27.48
28648;BME280;17137;51.494;-0.262;2023-06-14T00:21:16;49917.31;;;-145.72;27.62
28648;BME280;17137;51.494;-0.262;2023-06-14T00:21:46;49928.15;;;-145.72;27.67
28648;BME280;17137;51.494;-0.262;2023-06-14T00:22:16;49921.87;;;-145.72;27.61
28648;BME280;17137;51.494;-0.262;2023-06-14T00:22:47;49910.53;;;-145.72;27.69
28648;BME280;17137;51.494;-0.262;2023-06-14T00:23:17;49911.52;;;-145.72;27.56
28648;BME280;17137;51.494;-0.262;2023-06-14T00:23:47;49910.65;;;-145.72;27.54
28648;BME280;17137;51.494;-0.262;2023-06-14T00:24:17;49898.20;;;-145.72;27.58
28648;BME280;17137;51.494;-0.262;2023-06-14T00:24:48;49902.02;;;-145.72;27.58
28648;BME280;17137;51.494;-0.262;2023-06-14T00:25:19;49901.53;;;-145.72;27.49
28648;BME280;17137;51.494;-0.262;2023-06-14T00:25:49;49909.91;;;-145.72;27.55
28648;BME280;17137;51.494;-0.262;2023-06-14T00:26:19;49901.78;;;-145.72;27.56
28648;BME280;17137;51.494;-0.262;2023-06-14T00:26:50;49895.62;;;-145.72;27.61
28648;BME280;17137;51.494;-0.262;2023-06-14T00:27:20;49899.19;;;-145.72;27.66
28648;BME280;17137;51.494;-0.262;2023-06-14T00:27:50;49917.80;;;-145.72;27.76
28648;BME280;17137;51.494;-0.262;2023-06-14T00:28:21;49936.66;;;-145.72;28.78
28648;BME280;17137;51.494;-0.262;2023-06-14T00:28:51;49932.72;;;-145.72;29.03
28648;BME280;17137;51.494;-0.262;2023-06-14T00:29:21;49927.79;;;-145.72;29.10
28648;BME280;17137;51.494;-0.262;2023-06-14T00:29:51;49927.54;;;-145.72;29.03
28648;BME280;17137;51.494;-0.262;2023-06-14T00:30:22;49921.25;;;-145.72;29.07
28648;BME280;17137;51.494;-0.262;2023-06-14T00:30:52;49928.65;;;-145.72;29.35
28648;BME280;17137;51.494;-0.262;2023-06-14T00:31:22;49933.33;;;-145.72;29.45
28648;BME280;17137;51.494;-0.262;2023-06-14T00:31:53;49942.33;;;-145.72;29.44
28648;BME280;17137;51.494;-0.262;2023-06-14T00:32:23;49950.22;;;-145.72;29.48
28648;BME280;17137;51.494;-0.262;2023-06-14T00:32:53;49955.15;;;-145.72;29.34
28648;BME280;17137;51.494;-0.262;2023-06-14T00:33:24;49952.93;;;-145.72;29.00
28648;BME280;17137;51.494;-0.262;2023-06-14T00:33:54;49948.99;;;-145.72;28.84
28648;BME280;17137;51.494;-0.262;2023-06-14T00:34:24;49939.25;;;-145.72;28.75
28648;BME280;17137;51.494;-0.262;2023-06-14T00:34:54;49948.12;;;-145.72;28.87
28648;BME280;17137;51.494;-0.262;2023-06-14T00:35:25;49936.91;;;-145.72;28.87
28648;BME280;17137;51.494;-0.262;2023-06-14T00:36:00;49946.40;;;-145.72;28.90
28648;BME280;17137;51.494;-0.262;2023-06-14T00:36:31;49940.23;;;-145.72;28.82
28648;BME280;17137;51.494;-0.262;2023-06-14T00:37:01;49927.42;;;-145.72;28.75
28648;BME280;17137;51.494;-0.262;2023-06-14T00:37:31;49941.59;;;-145.72;28.87
28648;BME280;17137;51.494;-0.262;2023-06-14T00:38:02;49950.09;;;-145.72;28.85
28648;BME280;17137;51.494;-0.262;2023-06-14T00:38:32;49943.19;;;-145.72;28.81
28648;BME280;17137;51.494;-0.262;2023-06-14T00:39:03;49939.49;;;-145.72;28.95
28648;BME280;17137;51.494;-0.262;2023-06-14T00:39:33;49945.78;;;-145.72;29.21
28648;BME280;17137;51.494;-0.262;2023-06-14T00:40:04;49946.40;;;-145.72;29.20
28648;BME280;17137;51.494;-0.262;2023-06-14T00:40:35;49937.52;;;-145.72;29.18
28648;BME280;17137;51.494;-0.262;2023-06-14T00:41:05;49939.86;;;-145.72;29.22
28648;BME280;17137;51.494;-0.262;2023-06-14T00:41:35;49950.34;;;-145.72;29.31
28648;BME280;17137;51.494;-0.262;2023-06-14T00:42:06;49956.01;;;-145.72;29.40
28648;BME280;17137;51.494;-0.262;2023-06-14T00:42:37;49942.21;;;-145.72;29.30
28648;BME280;17137;51.494;-0.262;2023-06-14T00:43:07;49952.68;;;-145.72;29.28
28648;BME280;17137;51.494;-0.262;2023-06-14T00:43:37;49945.53;;;-145.72;29.10
28648;BME280;17137;51.494;-0.262;2023-06-14T00:44:07;49955.76;;;-145.72;29.16
28648;BME280;17137;51.494;-0.262;2023-06-14T00:44:38;49948.99;;;-145.72;29.22
28648;BME280;17137;51.494;-0.262;2023-06-14T00:45:09;49945.78;;;-145.72;29.20
28648;BME280;17137;51.494;-0.262;2023-06-14T00:45:40;49959.59;;;-145.72;29.25
28648;BME280;17137;51.494;-0.262;2023-06-14T00:46:10;49955.52;;;-145.72;29.26
28648;BME280;17137;51.494;-0.262;2023-06-14T00:46:40;49958.11;;;-145.72;29.18
28648;BME280;17137;51.494;-0.262;2023-06-14T00:47:10;49959.09;;;-145.72;29.22
28648;BME280;17137;51.494;-0.262;2023-06-14T00:47:43;49957.98;;;-145.72;29.14
28648;BME280;17137;51.494;-0.262;2023-06-14T00:48:14;49967.84;;;-145.72;29.18
28648;BME280;17137;51.494;-0.262;2023-06-14T00:48:45;49947.51;;;-145.72;29.10
28648;BME280;17137;51.494;-0.262;2023-06-14T00:49:16;49958.60;;;-145.72;29.20
28648;BME280;17137;51.494;-0.262;2023-06-14T00:49:48;49954.41;;;-145.72;29.14
28648;BME280;17137;51.494;-0.262;2023-06-14T00:50:20;49966.36;;;-145.72;29.12
28648;BME280;17137;51.494;-0.262;2023-06-14T00:50:51;49963.53;;;-145.72;29.24
28648;BME280;17137;51.494;-0.262;2023-06-14T00:51:22;49967.23;;;-145.72;29.29
28648;BME280;17137;51.494;-0.262;2023-06-14T00:51:53;49964.52;;;-145.72;29.29
28648;BME280;17137;51.494;-0.262;2023-06-14T00:52:23;49960.08;;;-145.72;29.23
28648;BME280;17137;51.494;-0.262;2023-06-14T00:52:54;49958.85;;;-145.72;29.16
28648;BME280;17137;51.494;-0.262;2023-06-14T00:53:24;49966.00;;;-145.72;29.29
28648;BME280;17137;51.494;-0.262;2023-06-14T00:53:55;49966.36;;;-145.72;29.45
28648;BME280;17137;51.494;-0.262;2023-06-14T00:54:25;49974.38;;;-145.72;29.38
28648;BME280;17137;51.494;-0.262;2023-06-14T00:54:55;49969.20;;;-145.72;29.53
28648;BME280;17137;51.494;-0.262;2023-06-14T00:55:25;49976.47;;;-145.72;29.86
28648;BME280;17137;51.494;-0.262;2023-06-14T00:55:56;49974.62;;;-145.72;29.95
28648;BME280;17137;51.494;-0.262;2023-06-14T00:56:27;49991.88;;;-145.72;30.00
28648;BME280;17137;51.494;-0.262;2023-06-14T00:56:57;49985.22;;;-145.72;30.22
28648;BME280;17137;51.494;-0.262;2023-06-14T00:57:28;49987.81;;;-145.72;30.26
28648;BME280;17137;51.494;-0.262;2023-06-14T00:57:58;49973.27;;;-145.72;30.20
28648;BME280;17137;51.494;-0.262;2023-06-14T00:58:29;49992.74;;;-145.72;30.33
28648;BME280;17137;51.494;-0.262;2023-06-14T00:59:00;49981.28;;;-145.72;30.34
28648;BME280;17137;51.494;-0.262;2023-06-14T00:59:31;49991.51;;;-145.72;30.25
28648;BME280;17137;51.494;-0.262;2023-06-14T01:00:02;49983.62;;;-145.72;30.37
28648;BME280;17137;51.494;-0.262;2023-06-14T01:00:32;49982.39;;;-145.72;30.43
28648;BME280;17137;51.494;-0.262;2023-06-14T01:01:02;50001.62;;;-145.72;30.84
28648;BME280;17137;51.494;-0.262;2023-06-14T01:01:33;49997.30;;;-145.72;30.73
28648;BME280;17137;51.494;-0.262;2023-06-14T01:02:03;49992.50;;;-145.72;31.06
28648;BME280;17137;51.494;-0.262;2023-06-14T01:02:34;50007.16;;;-145.72;31.27
28648;BME280;17137;51.494;-0.262;2023-06-14T01:03:04;50006.92;;;-145.72;31.44
28648;BME280;17137;51.494;-0.262;2023-06-14T01:03:35;49997.06;;;-145.72;31.46
28648;BME280;17137;51.494;-0.262;2023-06-14T01:04:05;50011.97;;;-145.72;31.87
28648;BME280;17137;51.494;-0.262;2023-06-14T01:04:35;50007.66;;;-145.72;31.99
28648;BME280;17137;51.494;-0.262;2023-06-14T01:05:07;50009.63;;;-145.72;32.21
28648;BME280;17137;51.494;-0.262;2023-06-14T01:05:38;50017.39;;;-145.72;32.52
28648;BME280;17137;51.494;-0.262;2023-06-14T01:06:18;50020.35;;;-145.72;32.78
28648;BME280;17137;51.494;-0.262;2023-06-14T01:06:57;50018.13;;;-145.72;32.75
28648;BME280;17137;51.494;-0.262;2023-06-14T01:07:38;50024.17;;;-145.72;33.06
28648;BME280;17137;51.494;-0.262;2023-06-14T01:08:23;50035.27;;;-145.72;33.53
28648;BME280;17137;51.494;-0.262;2023-06-14T01:09:06;50025.28;;;-145.72;33.65
28648;BME280;17137;51.494;-0.262;2023-06-14T01:09:54;50044.51;;;-145.72;34.20
28648;BME280;17137;51.494;-0.262;2023-06-14T01:10:35;50034.03;;;-145.72;33.90
28648;BME280;17137;51.494;-0.262;2023-06-14T01:11:14;50019.00;;;-145.72;33.84
28648;BME280;17137;51.494;-0.262;2023-06-14T01:11:53;50019.61;;;-145.72;33.79
28648;BME280;17137;51.494;-0.262;2023-06-14T01:12:34;50016.53;;;-145.72;33.92
28648;BME280;17137;51.494;-0.262;2023-06-14T01:13:12;50027.13;;;-145.72;33.97
28648;BME280;17137;51.494;-0.262;2023-06-14T01:13:46;50025.16;;;-145.72;33.91
28648;BME280;17137;51.494;-0.262;2023-06-14T01:14:17;50019.49;;;-145.72;33.79
28648;BME280;17137;51.494;-0.262;2023-06-14T01:14:48;50012.83;;;-145.72;33.86
28648;BME280;17137;51.494;-0.262;2023-06-14T01:15:21;50027.87;;;-145.72;34.18
28648;BME280;17137;51.494;-0.262;2023-06-14T01:15:52;50043.40;;;-145.72;34.56
28648;BME280;17137;51.494;-0.262;2023-06-14T01:16:23;50038.35;;;-145.72;34.64
28648;BME280;17137;51.494;-0.262;2023-06-14T01:16:58;50038.23;;;-145.72;34.71
28648;BME280;17137;51.494;-0.262;2023-06-14T01:17:30;50040.20;;;-145.72;34.84
28648;BME280;17137;51.494;-0.262;2023-06-14T01:18:00;50030.09;;;-145.72;34.88
28648;BME280;17137;51.494;-0.262;2023-06-14T01:18:31;50047.72;;;-145.72;35.22
28648;BME280;17137;51.494;-0.262;2023-06-14T01:19:02;50043.90;;;-145.72;35.29
28648;BME280;17137;51.494;-0.262;2023-06-14T01:19:33;50048.83;;;-145.72;35.72
28648;BME280;17137;51.494;-0.262;2023-06-14T01:20:04;50047.96;;;-145.72;35.99
28648;BME280;17137;51.494;-0.262;2023-06-14T01:20:35;50048.46;;;-145.72;36.34
28648;BME280;17137;51.494;-0.262;2023-06-14T01:21:05;50045.50;;;-145.72;36.17
28648;BME280;17137;51.494;-0.262;2023-06-14T01:21:35;50050.18;;;-145.72;36.27
28648;BME280;17137;51.494;-0.262;2023-06-14T01:22:06;50044.64;;;-145.72;36.28
28648;BME280;17137;51.494;-0.262;2023-06-14T01:22:36;50037.98;;;-145.72;36.45
28648;BME280;17137;51.494;-0.262;2023-06-14T01:23:06;50038.47;;;-145.72;36.81
28648;BME280;17137;51.494;-0.262;2023-06-14T01:23:37;50037.86;;;-145.72;36.97
28648;BME280;17137;51.494;-0.262;2023-06-14T01:24:07;50056.47;;;-145.72;37.43
28648;BME280;17137;51.494;-0.262;2023-06-14T01:24:37;50040.07;;;-145.72;37.45
28648;BME280;17137;51.494;-0.262;2023-06-14T01:25:08;50036.99;;;-145.72;37.62
28648;BME280;17137;51.494;-0.262;2023-06-14T01:25:38;50055.61;;;-145.72;38.13
28648;BME280;17137;51.494;-0.262;2023-06-14T01:26:08;50047.47;;;-145.72;37.97
28648;BME280;17137;51.494;-0.262;2023-06-14T01:26:40;50043.40;;;-145.72;37.94
28648;BME280;17137;51.494;-0.262;2023-06-14T01:27:11;50053.88;;;-145.72;37.98
28648;BME280;17137;51.494;-0.262;2023-06-14T01:27:42;50038.10;;;-145.72;38.22
28648;BME280;17137;51.494;-0.262;2023-06-14T01:28:15;50037.49;;;-145.72;38.36
28648;BME280;17137;51.494;-0.262;2023-06-14T01:28:46;50049.20;;;-145.72;38.74
28648;BME280;17137;51.494;-0.262;2023-06-14T01:29:16;50051.29;;;-145.72;38.82
28648;BME280;17137;51.494;-0.262;2023-06-14T01:29:47;50037.49;;;-145.72;39.55
28648;BME280;17137;51.494;-0.262;2023-06-14T01:30:18;50047.96;;;-145.72;39.76
28648;BME280;17137;51.494;-0.262;2023-06-14T01:30:52;50041.06;;;-145.72;40.47
28648;BME280;17137;51.494;-0.262;2023-06-14T01:31:24;50039.09;;;-145.72;40.87
28648;BME280;17137;51.494;-0.262;2023-06-14T01:31:54;50047.96;;;-145.72;41.34
28648;BME280;17137;51.494;-0.262;2023-06-14T01:32:27;50050.67;;;-145.72;41.37
28648;BME280;17137;51.494;-0.262;2023-06-14T01:32:58;50049.44;;;-145.72;41.46
28648;BME280;17137;51.494;-0.262;2023-06-14T01:33:29;50057.45;;;-145.72;42.03
28648;BME280;17137;51.494;-0.262;2023-06-14T01:34:01;50050.92;;;-145.72;42.48
28648;BME280;17137;51.494;-0.262;2023-06-14T01:34:31;50058.56;;;-145.72;42.97
28648;BME280;17137;51.494;-0.262;2023-06-14T01:35:01;50064.23;;;-145.72;43.00
28648;BME280;17137;51.494;-0.262;2023-06-14T01:35:32;50047.47;;;-145.72;42.86
28648;BME280;17137;51.494;-0.262;2023-06-14T01:36:03;50062.01;;;-145.72;42.96
28648;BME280;17137;51.494;-0.262;2023-06-14T01:36:37;50057.95;;;-145.72;42.99
28648;BME280;17137;51.494;-0.262;2023-06-14T01:37:11;50050.92;;;-145.72;43.24
28648;BME280;17137;51.494;-0.262;2023-06-14T01:37:43;50050.92;;;-145.72;43.57
28648;BME280;17137;51.494;-0.262;2023-06-14T01:38:18;50060.78;;;-145.72;43.69
28648;BME280;17137;51.494;-0.262;2023-06-14T01:38:50;50058.32;;;-145.72;44.50
28648;BME280;17137;51.494;-0.262;2023-06-14T01:39:22;50062.88;;;-145.72;44.23
28648;BME280;17137;51.494;-0.262;2023-06-14T01:39:53;50069.41;;;-145.72;44.44
28648;BME280;17137;51.494;-0.262;2023-06-14T01:40:25;50064.73;;;-145.72;44.54
28648;BME280;17137;51.494;-0.262;2023-06-14T01:40:57;50044.14;;;-145.72;44.34
28648;BME280;17137;51.494;-0.262;2023-06-14T01:41:28;50058.19;;;-145.72;44.82
28648;BME280;17137;51.494;-0.262;2023-06-14T01:42:00;50066.58;;;-145.72;45.71
28648;BME280;17137;51.494;-0.262;2023-06-14T01:42:31;50057.33;;;-145.72;45.65
28648;BME280;17137;51.494;-0.262;2023-06-14T01:43:03;50072.74;;;-145.72;46.19
28648;BME280;17137;51.494;-0.262;2023-06-14T01:43:35;50064.11;;;-145.72;45.94
28648;BME280;17137;51.494;-0.262;2023-06-14T01:44:06;50064.73;;;-145.72;46.52
28648;BME280;17137;51.494;-0.262;2023-06-14T01:44:36;50075.57;;;-145.72;46.62
28648;BME280;17137;51.494;-0.262;2023-06-14T01:45:09;50066.58;;;-145.72;46.73
28648;BME280;17137;51.494;-0.262;2023-06-14T01:45:41;50060.66;;;-145.72;46.57
28648;BME280;17137;51.494;-0.262;2023-06-14T01:46:12;50057.58;;;-145.72;46.64
28648;BME280;17137;51.494;-0.262;2023-06-14T01:46:44;50059.18;;;-145.72;46.88
28648;BME280;17137;51.494;-0.262;2023-06-14T01:47:15;50074.83;;;-145.72;47.74
28648;BME280;17137;51.494;-0.262;2023-06-14T01:47:46;50056.22;;;-145.72;47.80
28648;BME280;17137;51.494;-0.262;2023-06-14T01:48:17;50062.51;;;-145.72;48.43
28648;BME280;17137;51.494;-0.262;2023-06-14T01:48:48;50067.56;;;-145.72;48.31
28648;BME280;17137;51.494;-0.262;2023-06-14T01:49:18;50072.99;;;-145.72;49.35
28648;BME280;17137;51.494;-0.262;2023-06-14T01:49:50;50060.04;;;-145.72;48.71
28648;BME280;17137;51.494;-0.262;2023-06-14T01:50:21;50065.59;;;-145.72;48.70
28648;BME280;17137;51.494;-0.262;2023-06-14T01:50:52;50074.59;;;-145.72;49.48
28648;BME280;17137;51.494;-0.262;2023-06-14T01:51:22;50068.42;;;-145.72;49.37
28648;BME280;17137;51.494;-0.262;2023-06-14T01:51:52;50067.32;;;-145.72;49.64
28648;BME280;17137;51.494;-0.262;2023-06-14T01:52:23;50058.56;;;-145.72;49.40
28648;BME280;17137;51.494;-0.262;2023-06-14T01:52:53;50062.75;;;-145.72;49.81
28648;BME280;17137;51.494;-0.262;2023-06-14T01:53:23;50063.37;;;-145.72;50.56
28648;BME280;17137;51.494;-0.262;2023-06-14T01:53:54;50074.83;;;-145.72;50.86
28648;BME280;17137;51.494;-0.262;2023-06-14T01:54:24;50075.57;;;-145.72;50.69
28648;BME280;17137;51.494;-0.262;2023-06-14T01:54:54;50065.59;;;-145.72;50.63
28648;BME280;17137;51.494;-0.262;2023-06-14T01:55:24;50073.72;;;-145.72;50.93
28648;BME280;17137;51.494;-0.262;2023-06-14T01:55:55;50073.97;;;-145.72;51.12
28648;BME280;17137;51.494;-0.262;2023-06-14T01:56:25;50067.32;;;-145.72;51.33
28648;BME280;17137;51.494;-0.262;2023-06-14T01:56:55;50072.99;;;-145.72;51.47
28648;BME280;17137;51.494;-0.262;2023-06-14T01:57:26;50069.41;;;-145.72;51.60
28648;BME280;17137;51.494;-0.262;2023-06-14T01:57:56;50076.68;;;-145.72;52.26
28648;BME280;17137;51.494;-0.262;2023-06-14T01:58:26;50072.62;;;-145.72;52.20
28648;BME280;17137;51.494;-0.262;2023-06-14T01:58:57;50075.08;;;-145.72;51.89
28648;BME280;17137;51.494;-0.262;2023-06-14T01:59:28;50072.25;;;-145.72;51.99
28648;BME280;17137;51.494;-0.262;2023-06-14T01:59:58;50068.67;;;-145.72;52.03
28648;BME280;17137;51.494;-0.262;2023-06-14T02:00:28;50076.56;;;-145.72;52.52
28648;BME280;17137;51.494;-0.262;2023-06-14T02:00:59;50072.49;;;-145.72;53.10
28648;BME280;17137;51.494;-0.262;2023-06-14T02:01:29;50073.11;;;-145.72;53.29
28648;BME280;17137;51.494;-0.262;2023-06-14T02:01:59;50083.22;;;-145.72;53.83
28648;BME280;17137;51.494;-0.262;2023-06-14T02:02:30;50081.37;;;-145.72;54.01
28648;BME280;17137;51.494;-0.262;2023-06-14T02:03:00;50086.05;;;-145.72;54.12
28648;BME280;17137;51.494;-0.262;2023-06-14T02:03:30;50073.85;;;-145.72;54.11
28648;BME280;17137;51.494;-0.262;2023-06-14T02:04:01;50079.76;;;-145.72;53.89
28648;BME280;17137;51.494;-0.262;2023-06-14T02:04:31;50081.00;;;-145.72;54.34
28648;BME280;17137;51.494;-0.262;2023-06-14T02:05:01;50092.34;;;-145.72;55.69
28648;BME280;17137;51.494;-0.262;2023-06-14T02:05:32;50103.55;;;-145.72;56.32
28648;BME280;17137;51.494;-0.262;2023-06-14T02:06:02;50084.94;;;-145.72;56.20
28648;BME280;17137;51.494;-0.262;2023-06-14T02:06:32;50102.20;;;-145.72;56.71
28648;BME280;17137;51.494;-0.262;2023-06-14T02:07:03;50090.24;;;-145.72;56.62
28648;BME280;17137;51.494;-0.262;2023-06-14T02:07:33;50096.16;;;-145.72;56.46
28648;BME280;17137;51.494;-0.262;2023-06-14T02:08:04;50087.78;;;-145.72;56.41
28648;BME280;17137;51.494;-0.262;2023-06-14T02:08:39;50085.68;;;-145.72;56.85
28648;BME280;17137;51.494;-0.262;2023-06-14T02:09:09;50095.42;;;-145.72;57.15
28648;BME280;17137;51.494;-0.262;2023-06-14T02:09:40;50094.19;;;-145.72;56.75
28648;BME280;17137;51.494;-0.262;2023-06-14T02:10:10;50093.94;;;-145.72;57.41
28648;BME280;17137;51.494;-0.262;2023-06-14T02:10:41;50099.24;;;-145.72;57.48
28648;BME280;17137;51.494;-0.262;2023-06-14T02:11:11;50095.17;;;-145.72;57.30
28648;BME280;17137;51.494;-0.262;2023-06-14T02:11:41;50097.39;;;-145.72;57.66
28648;BME280;17137;51.494;-0.262;2023-06-14T02:12:11;50091.84;;;-145.72;57.34
28648;BME280;17137;51.494;-0.262;2023-06-14T02:12:42;50091.60;;;-145.72;56.98
28648;BME280;17137;51.494;-0.262;2023-06-14T02:13:12;50096.28;;;-145.72;57.00
28648;BME280;17137;51.494;-0.262;2023-06-14T02:13:42;50082.60;;;-145.72;57.21
28648;BME280;17137;51.494;-0.262;2023-06-14T02:14:12;50088.27;;;-145.72;57.27
28648;BME280;17137;51.494;-0.262;2023-06-14T02:14:43;50088.76;;;-145.72;56.76
28648;BME280;17137;51.494;-0.262;2023-06-14T02:15:13;50082.85;;;-145.72;56.56
28648;BME280;17137;51.494;-0.262;2023-06-14T02:15:43;50082.85;;;-145.72;56.69
28648;BME280;17137;51.494;-0.262;2023-06-14T02:16:14;50099.98;;;-145.72;58.09
28648;BME280;17137;51.494;-0.262;2023-06-14T02:16:44;50112.55;;;-145.72;58.94
28648;BME280;17137;51.494;-0.262;2023-06-14T02:17:14;50100.10;;;-145.72;58.44
28648;BME280;17137;51.494;-0.262;2023-06-14T02:17:45;50088.76;;;-145.72;57.55
28648;BME280;17137;51.494;-0.262;2023-06-14T02:18:15;50088.27;;;-145.72;57.31
28648;BME280;17137;51.494;-0.262;2023-06-14T02:18:46;50088.39;;;-145.72;57.64
28648;BME280;17137;51.494;-0.262;2023-06-14T02:19:16;50093.20;;;-145.72;57.74
28648;BME280;17137;51.494;-0.262;2023-06-14T02:19:47;50103.80;;;-145.72;57.79
28648;BME280;17137;51.494;-0.262;2023-06-14T02:20:17;50095.42;;;-145.72;57.85
28648;BME280;17137;51.494;-0.262;2023-06-14T02:20:47;50086.42;;;-145.72;57.42
28648;BME280;17137;51.494;-0.262;2023-06-14T02:21:18;50084.08;;;-145.72;56.81
28648;BME280;17137;51.494;-0.262;2023-06-14T02:21:48;50080.63;;;-145.72;56.52
28648;BME280;17137;51.494;-0.262;2023-06-14T02:22:18;50095.42;;;-145.72;57.19
28648;BME280;17137;51.494;-0.262;2023-06-14T02:22:48;50096.77;;;-145.72;57.67
28648;BME280;17137;51.494;-0.262;2023-06-14T02:23:19;50094.31;;;-145.72;57.62
28648;BME280;17137;51.494;-0.262;2023-06-14T02:23:49;50094.06;;;-145.72;57.41
28648;BME280;17137;51.494;-0.262;2023-06-14T02:24:19;50099.86;;;-145.72;56.88
28648;BME280;17137;51.494;-0.262;2023-06-14T02:24:49;50086.30;;;-145.72;56.71
28648;BME280;17137;51.494;-0.262;2023-06-14T02:25:20;50088.15;;;-145.72;57.24
28648;BME280;17137;51.494;-0.262;2023-06-14T02:25:50;50080.50;;;-145.72;56.92
28648;BME280;17137;51.494;-0.262;2023-06-14T02:26:20;50081.12;;;-145.72;56.43
28648;BME280;17137;51.494;-0.262;2023-06-14T02:26:50;50084.57;;;-145.72;56.73
28648;BME280;17137;51.494;-0.262;2023-06-14T02:27:21;50089.50;;;-145.72;57.07
28648;BME280;17137;51.494;-0.262;2023-06-14T02:27:51;50090.37;;;-145.72;57.02
28648;BME280;17137;51.494;-0.262;2023-06-14T02:28:22;50096.53;;;-145.72;56.67
28648;BME280;17137;51.494;-0.262;2023-06-14T02:28:52;50101.09;;;-145.72;57.48
28648;BME280;17137;51.494;-0.262;2023-06-14T02:29:22;50073.35;;;-145.72;57.55
28648;BME280;17137;51.494;-0.262;2023-06-14T02:29:53;50091.10;;;-145.72;57.24
28648;BME280;17137;51.494;-0.262;2023-06-14T02:30:23;50087.65;;;-145.72;57.05
28648;BME280;17137;51.494;-0.262;2023-06-14T02:30:53;50093.45;;;-145.72;57.08
28648;BME280;17137;51.494;-0.262;2023-06-14T02:31:24;50091.47;;;-145.72;57.13
28648;BME280;17137;51.494;-0.262;2023-06-14T02:31:54;50092.58;;;-145.72;57.02
28648;BME280;17137;51.494;-0.262;2023-06-14T02:32:24;50088.27;;;-145.72;57.06
28648;BME280;17137;51.494;-0.262;2023-06-14T02:32:54;50074.96;;;-145.72;57.27
28648;BME280;17137;51.494;-0.262;2023-06-14T02:33:25;50097.51;;;-145.72;58.50
28648;BME280;17137;51.494;-0.262;2023-06-14T02:33:55;50094.06;;;-145.72;58.13
28648;BME280;17137;51.494;-0.262;2023-06-14T02:34:25;50089.87;;;-145.72;57.90
28648;BME280;17137;51.494;-0.262;2023-06-14T02:34:55;50097.88;;;-145.72;57.77
28648;BME280;17137;51.494;-0.262;2023-06-14T02:35:26;50087.78;;;-145.72;58.29
28648;BME280;17137;51.494;-0.262;2023-06-14T02:35:57;50106.88;;;-145.72;58.21
28648;BME280;17137;51.494;-0.262;2023-06-14T02:36:27;50092.09;;;-145.72;58.47
28648;BME280;17137;51.494;-0.262;2023-06-14T02:36:57;50088.76;;;-145.72;58.66
28648;BME280;17137;51.494;-0.262;2023-06-14T02:37:28;50092.34;;;-145.72;58.63
28648;BME280;17137;51.494;-0.262;2023-06-14T02:37:58;50101.58;;;-145.72;59.23
28648;BME280;17137;51.494;-0.262;2023-06-14T02:38:29;50096.53;;;-145.72;58.90